Spar Hydra — LAKL7 — position and weather

sailwx.info

Track history (hours):
 
Tides and Currents Weather Stations Pressure Air Temp Water Temp Dewpoint Dewpoint Depression Visibility Wind Speed Wind Dir Waves Ship Positions

Spar Hydra

Last reported at 2016-Apr-30 05:33 UTC. Time now 2016-May-01 11:46 UTC.
Position N 01°16' E 104°02'.

Length 190 m; draft 6.8 m.

Type: Cargo ship. MMSI: 259701000.

Date/timePositionNaut miles runAvg speedWind from/ knotsBaromVisibWave heightAir tempDewpointWater temp
2016-Apr-30 05:33N 01°16' E 104°02'2 2.4
2016-Apr-30 04:33N 01°18' E 104°00'0 0.1
2016-Apr-30 03:15N 01°18' E 104°00'0 0.0
2016-Apr-30 02:33N 01°18' E 104°00'0 0.0
2016-Apr-30 00:24N 01°17' E 104°00'0 0.0
2016-Apr-29 23:12N 01°17' E 104°00'0 0.0
2016-Apr-29 22:27N 01°17' E 104°00'0 0.0
2016-Apr-29 21:21N 01°17' E 104°00'0 0.0
2016-Apr-29 20:33N 01°18' E 104°00'0 0.1
2016-Apr-29 19:33N 01°18' E 104°00'0 0.1
2016-Apr-29 17:32N 01°17' E 104°00'4 4.0
2016-Apr-29 16:33N 01°15' E 103°57'2 2.2
2016-Apr-29 15:33N 01°13' E 103°55'1010.3
2016-Apr-29 14:34N 01°08' E 103°47'1111.0
2016-Apr-29 13:32N 01°04' E 103°36'  
2016-Apr-21 06:33N 02°03' E 102°08'1413.4
2016-Apr-21 05:30N 01°55' E 102°20'1213.1
2016-Apr-21 04:33N 01°50' E 102°31'1212.5
2016-Apr-21 03:33N 01°45' E 102°42'5211.5
2016-Apr-20 23:03N 01°15' E 103°24'713.3
2016-Apr-20 22:33N 01°13' E 103°31'1312.6
2016-Apr-20 21:33N 01°09' E 103°43'1110.6
2016-Apr-20 20:33N 01°13' E 103°53'8 7.9
2016-Apr-20 19:32N 01°17' E 103°59'0 0.2
2016-Apr-20 18:33N 01°18' E 103°59'0 0.1
2016-Apr-20 17:30N 01°17' E 103°59'0 0.1
2016-Apr-20 14:12N 01°18' E 103°59'0 0.0
2016-Apr-20 13:30N 01°18' E 103°59'0 0.0
2016-Apr-20 12:30N 01°17' E 103°59'0 0.0
2016-Apr-20 11:24N 01°18' E 103°59'0 0.0
2016-Apr-20 10:33N 01°18' E 103°59'0 0.2
2016-Apr-20 09:33N 01°17' E 103°59'4 4.2
2016-Apr-20 08:33N 01°16' E 104°03'  
Track history (hours):
 
Tides and Currents Weather Stations Pressure Air Temp Water Temp Dewpoint Dewpoint Depression Visibility Wind Speed Wind Dir Waves Ship Positions

Spar Hydra

Last reported at 2016-Apr-30 05:33 UTC. Time now 2016-May-01 11:46 UTC.
Position N 01°16' E 104°02'.

Length 190 m; draft 6.8 m.

Type: Cargo ship. MMSI: 259701000.

Date/timePositionNaut miles runAvg speedWind from/ knotsBaromVisibWave heightAir tempDewpointWater temp
2016-Apr-30 05:33N 01°16' E 104°02'2 2.4
2016-Apr-30 04:33N 01°18' E 104°00'0 0.1
2016-Apr-30 03:15N 01°18' E 104°00'0 0.0
2016-Apr-30 02:33N 01°18' E 104°00'0 0.0
2016-Apr-30 00:24N 01°17' E 104°00'0 0.0
2016-Apr-29 23:12N 01°17' E 104°00'0 0.0
2016-Apr-29 22:27N 01°17' E 104°00'0 0.0
2016-Apr-29 21:21N 01°17' E 104°00'0 0.0
2016-Apr-29 20:33N 01°18' E 104°00'0 0.1
2016-Apr-29 19:33N 01°18' E 104°00'0 0.1
2016-Apr-29 17:32N 01°17' E 104°00'4 4.0
2016-Apr-29 16:33N 01°15' E 103°57'2 2.2
2016-Apr-29 15:33N 01°13' E 103°55'1010.3
2016-Apr-29 14:34N 01°08' E 103°47'1111.0
2016-Apr-29 13:32N 01°04' E 103°36'  
2016-Apr-21 06:33N 02°03' E 102°08'1413.4
2016-Apr-21 05:30N 01°55' E 102°20'1213.1
2016-Apr-21 04:33N 01°50' E 102°31'1212.5
2016-Apr-21 03:33N 01°45' E 102°42'5211.5
2016-Apr-20 23:03N 01°15' E 103°24'713.3
2016-Apr-20 22:33N 01°13' E 103°31'1312.6
2016-Apr-20 21:33N 01°09' E 103°43'1110.6
2016-Apr-20 20:33N 01°13' E 103°53'8 7.9
2016-Apr-20 19:32N 01°17' E 103°59'0 0.2
2016-Apr-20 18:33N 01°18' E 103°59'0 0.1
2016-Apr-20 17:30N 01°17' E 103°59'0 0.1
2016-Apr-20 14:12N 01°18' E 103°59'0 0.0
2016-Apr-20 13:30N 01°18' E 103°59'0 0.0
2016-Apr-20 12:30N 01°17' E 103°59'0 0.0
2016-Apr-20 11:24N 01°18' E 103°59'0 0.0
2016-Apr-20 10:33N 01°18' E 103°59'0 0.2
2016-Apr-20 09:33N 01°17' E 103°59'4 4.2
2016-Apr-20 08:33N 01°16' E 104°03'  

Dump ship's entire track history